Time;durP1;ratioP1;P1;durP2;ratioP2;P2;SDS_P1;SDS_P2;PMS_P1;PMS_P2;Temp;Humidity;BMP_temperature;BMP_pressure;BME280_temperature;BME280_humidity;BME280_pressure;Samples;Min_cycle;Max_cycle;Signal;HPM_P1;HPM_P2
2022/11/21 00:00:28;;;;;;;3.00;0.47;;;3.60;99.90;;;;;;5021288;28;20456;-70
2022/11/21 00:02:53;;;;;;;1.20;0.50;;;3.50;99.90;;;;;;5024917;28;20461;-69
2022/11/21 00:05:19;;;;;;;1.00;0.40;;;3.50;99.90;;;;;;5021752;28;20464;-70
2022/11/21 00:07:44;;;;;;;1.10;0.40;;;3.50;99.90;;;;;;5013170;28;20215;-70
2022/11/21 00:10:11;;;;;;;1.43;0.50;;;3.50;99.90;;;;;;5014171;28;20193;-70
2022/11/21 00:12:37;;;;;;;1.10;0.50;;;3.40;99.90;;;;;;5027668;28;20186;-70
2022/11/21 00:15:04;;;;;;;1.10;0.50;;;3.40;99.90;;;;;;5030351;28;20425;-70
2022/11/21 00:17:29;;;;;;;1.10;0.40;;;3.30;99.90;;;;;;5033564;28;20197;-69
2022/11/21 00:19:55;;;;;;;1.10;0.50;;;3.20;99.90;;;;;;5022703;28;20425;-69
2022/11/21 00:22:21;;;;;;;1.20;0.50;;;3.20;99.90;;;;;;5021430;28;20190;-70
2022/11/21 00:24:46;;;;;;;1.10;0.40;;;3.20;99.90;;;;;;5023890;28;20226;-70
2022/11/21 00:27:12;;;;;;;1.20;0.50;;;3.10;99.90;;;;;;5019751;28;20239;-70
2022/11/21 00:29:37;;;;;;;1.07;0.40;;;3.00;99.90;;;;;;5034868;28;20182;-70
2022/11/21 00:32:03;;;;;;;1.20;0.60;;;3.00;99.90;;;;;;5030262;28;20191;-69
2022/11/21 00:34:29;;;;;;;1.10;0.40;;;3.00;99.90;;;;;;5026696;28;20208;-70
2022/11/21 00:36:54;;;;;;;1.10;0.40;;;3.00;99.90;;;;;;5021881;28;20204;-70
2022/11/21 00:39:20;;;;;;;1.10;0.50;;;2.90;99.90;;;;;;5023720;28;20657;-69
2022/11/21 00:41:45;;;;;;;1.10;0.40;;;3.00;99.90;;;;;;5032652;28;20196;-69
2022/11/21 00:44:11;;;;;;;1.20;0.50;;;2.90;99.90;;;;;;5034053;28;20197;-69
2022/11/21 00:46:37;;;;;;;1.77;0.63;;;2.90;99.90;;;;;;5029576;28;20195;-68
2022/11/21 00:49:02;;;;;;;1.20;0.50;;;2.90;99.90;;;;;;5025585;28;20198;-68
2022/11/21 00:51:28;;;;;;;4.90;0.93;;;2.90;99.90;;;;;;5015975;28;20202;-68
2022/11/21 00:53:53;;;;;;;1.10;0.40;;;2.90;99.90;;;;;;5024751;28;20199;-68
2022/11/21 00:56:19;;;;;;;1.77;0.77;;;2.90;99.90;;;;;;5020104;28;20186;-68
2022/11/21 00:58:44;;;;;;;1.10;0.50;;;2.90;99.90;;;;;;5034403;28;20289;-68
2022/11/21 01:01:13;;;;;;;4.03;0.93;;;3.00;99.90;;;;;;5031620;28;20195;-68
2022/11/21 01:03:39;;;;;;;1.10;0.50;;;3.00;99.90;;;;;;5025142;28;20198;-68
2022/11/21 01:06:11;;;;;;;1.30;0.60;;;3.10;99.90;;;;;;5030125;28;20430;-68
2022/11/21 01:08:38;;;;;;;2.13;0.70;;;3.20;99.90;;;;;;5023840;28;20476;-68
2022/11/21 01:11:06;;;;;;;1.20;0.40;;;3.20;99.90;;;;;;5031974;28;20508;-68
2022/11/21 01:13:33;;;;;;;4.90;0.60;;;3.20;99.90;;;;;;5028042;28;20823;-68
2022/11/21 01:16:08;;;;;;;1.43;0.70;;;3.20;99.90;;;;;;5041246;28;20430;-68
2022/11/21 01:18:35;;;;;;;1.43;0.63;;;3.30;99.90;;;;;;5052205;28;20408;-69
2022/11/21 01:21:03;;;;;;;1.63;0.63;;;3.30;99.90;;;;;;5039913;28;20429;-69
2022/11/21 01:23:29;;;;;;;5.33;0.73;;;3.30;99.90;;;;;;5036643;28;20394;-70
2022/11/21 01:26:01;;;;;;;1.43;0.67;;;3.40;99.90;;;;;;5041686;28;20508;-70
2022/11/21 01:28:27;;;;;;;2.17;1.00;;;3.30;99.90;;;;;;5041365;28;20442;-71
2022/11/21 01:30:52;;;;;;;2.80;0.80;;;3.40;99.90;;;;;;5021759;28;20402;-71
2022/11/21 01:33:18;;;;;;;4.87;0.50;;;3.40;99.90;;;;;;5016800;28;20176;-71
2022/11/21 01:35:43;;;;;;;2.57;1.00;;;3.40;99.90;;;;;;5023431;28;20607;-71
2022/11/21 01:38:09;;;;;;;1.10;0.50;;;3.40;99.90;;;;;;5033982;28;20222;-71
2022/11/21 01:40:40;;;;;;;2.20;0.80;;;3.40;99.90;;;;;;5014421;28;20187;-71
2022/11/21 01:43:12;;;;;;;2.23;0.70;;;3.40;99.90;;;;;;5027936;28;20265;-71
2022/11/21 01:46:03;;;;;;;1.10;0.50;;;3.50;99.90;;;;;;5034055;28;20445;-71
2022/11/21 01:48:41;;;;;;;1.70;0.60;;;3.40;99.90;;;;;;5033563;28;20515;-71
2022/11/21 01:51:54;;;;;;;1.40;0.80;;;3.40;99.90;;;;;;5032381;28;20475;-70
2022/11/21 01:54:34;;;;;;;1.80;0.60;;;3.40;99.90;;;;;;5014919;28;20456;-71
2022/11/21 01:57:14;;;;;;;1.80;0.50;;;3.50;99.90;;;;;;5013286;28;20513;-71
2022/11/21 01:59:49;;;;;;;1.63;0.70;;;3.40;99.90;;;;;;5022342;28;20768;-71
2022/11/21 02:02:19;;;;;;;4.03;1.00;;;3.40;99.90;;;;;;5021190;28;20457;-71
2022/11/21 02:04:47;;;;;;;3.43;0.90;;;3.50;99.90;;;;;;5031928;28;20424;-70
2022/11/21 02:07:16;;;;;;;1.10;0.50;;;3.40;99.90;;;;;;5032586;28;20471;-71
2022/11/21 02:09:47;;;;;;;1.60;0.70;;;3.50;99.90;;;;;;5033273;28;20418;-71
2022/11/21 02:12:22;;;;;;;1.10;0.53;;;3.50;99.90;;;;;;5031327;28;20794;-70
2022/11/21 02:14:48;;;;;;;1.10;0.40;;;3.50;99.90;;;;;;5028041;28;20440;-71
2022/11/21 02:17:17;;;;;;;1.17;0.60;;;3.50;99.90;;;;;;5027871;28;20431;-71
2022/11/21 02:19:59;;;;;;;1.20;0.50;;;3.40;99.90;;;;;;5016242;28;20440;-71
2022/11/21 02:22:42;;;;;;;1.20;0.50;;;3.50;99.90;;;;;;5026517;28;20432;-71
2022/11/21 02:25:17;;;;;;;1.10;0.50;;;3.40;99.90;;;;;;5019724;28;20472;-71
2022/11/21 02:27:44;;;;;;;1.10;0.53;;;3.50;99.90;;;;;;5023956;28;20547;-71
2022/11/21 02:30:10;;;;;;;1.10;0.50;;;3.40;99.90;;;;;;5014407;28;20453;-71
2022/11/21 02:32:38;;;;;;;4.60;0.60;;;3.40;99.90;;;;;;5023973;28;20426;-71
2022/11/21 02:35:05;;;;;;;1.20;0.60;;;3.40;99.90;;;;;;5014818;28;20426;-71
2022/11/21 02:37:32;;;;;;;1.60;0.60;;;3.40;99.90;;;;;;5024164;28;20426;-71
2022/11/21 02:40:02;;;;;;;1.30;0.57;;;3.40;99.90;;;;;;5015364;28;20918;-71
2022/11/21 02:43:01;;;;;;;1.10;0.50;;;3.40;99.90;;;;;;5031932;28;20429;-71
2022/11/21 02:45:36;;;;;;;5.07;0.73;;;3.30;99.90;;;;;;5025085;28;20505;-71
2022/11/21 02:48:01;;;;;;;2.03;1.00;;;3.30;99.90;;;;;;5020121;28;20469;-71
2022/11/21 02:50:32;;;;;;;1.40;0.80;;;3.30;99.90;;;;;;5029254;28;20433;-71
2022/11/21 02:52:58;;;;;;;2.50;0.80;;;3.30;99.90;;;;;;5015353;28;20179;-71
2022/11/21 02:55:24;;;;;;;2.90;0.63;;;3.30;99.90;;;;;;5021966;28;20448;-71
2022/11/21 02:57:51;;;;;;;1.37;0.57;;;3.30;99.90;;;;;;5032210;28;20186;-71
2022/11/21 03:00:17;;;;;;;1.10;0.50;;;3.30;99.90;;;;;;5023201;28;20445;-71
2022/11/21 03:02:42;;;;;;;1.53;0.60;;;3.30;99.90;;;;;;5026998;28;20443;-71
2022/11/21 03:05:10;;;;;;;1.97;0.63;;;3.30;99.90;;;;;;5022564;28;20536;-71
2022/11/21 03:07:36;;;;;;;1.70;0.50;;;3.30;99.90;;;;;;5028646;28;20244;-71
2022/11/21 03:10:02;;;;;;;1.77;0.70;;;3.30;99.90;;;;;;5032472;28;20811;-71
2022/11/21 03:12:28;;;;;;;1.70;0.60;;;3.30;99.90;;;;;;5028529;28;20624;-71
2022/11/21 03:14:53;;;;;;;1.10;0.43;;;3.20;99.90;;;;;;5026658;28;20200;-71
2022/11/21 03:17:19;;;;;;;1.50;0.60;;;3.20;99.90;;;;;;5016459;28;20194;-71
2022/11/21 03:19:44;;;;;;;1.10;0.50;;;3.20;99.90;;;;;;5031964;28;20190;-71
2022/11/21 03:22:12;;;;;;;1.10;0.50;;;3.30;99.90;;;;;;5018346;28;20194;-71
2022/11/21 03:24:37;;;;;;;1.30;0.50;;;3.30;99.90;;;;;;5031802;28;20190;-71
2022/11/21 03:27:03;;;;;;;1.03;0.40;;;3.30;99.90;;;;;;5015277;28;20984;-71
2022/11/21 03:29:29;;;;;;;1.10;0.50;;;3.30;99.90;;;;;;5020509;28;20194;-71
2022/11/21 03:31:54;;;;;;;1.10;0.50;;;3.30;99.90;;;;;;5018350;28;20182;-71
2022/11/21 03:34:20;;;;;;;1.30;0.50;;;3.40;99.90;;;;;;5022175;28;20553;-72
2022/11/21 03:36:45;;;;;;;1.10;0.50;;;3.30;99.90;;;;;;5025494;28;20218;-71
2022/11/21 03:39:11;;;;;;;1.10;0.40;;;3.30;99.90;;;;;;5021695;28;20222;-71
2022/11/21 03:41:37;;;;;;;1.10;0.50;;;3.30;99.90;;;;;;5026242;28;20525;-71
2022/11/21 03:44:08;;;;;;;2.03;0.60;;;3.30;99.90;;;;;;5030353;28;20182;-70
2022/11/21 03:46:36;;;;;;;4.80;0.50;;;3.30;99.90;;;;;;5031602;28;20193;-71
2022/11/21 03:49:02;;;;;;;1.20;0.60;;;3.30;99.90;;;;;;5031798;28;20496;-71
2022/11/21 03:51:28;;;;;;;1.57;0.60;;;3.40;99.90;;;;;;5027195;28;20861;-71
2022/11/21 03:53:54;;;;;;;1.23;0.60;;;3.40;99.90;;;;;;5022144;28;20433;-70
2022/11/21 03:56:20;;;;;;;1.10;0.47;;;3.40;99.90;;;;;;5032149;28;20182;-71
2022/11/21 03:58:46;;;;;;;1.10;0.50;;;3.40;99.90;;;;;;5031300;28;20182;-70
2022/11/21 04:01:12;;;;;;;1.20;0.57;;;3.40;99.90;;;;;;5028097;28;20730;-70
2022/11/21 04:03:39;;;;;;;3.70;0.80;;;3.40;99.90;;;;;;5021717;28;20179;-71
2022/11/21 04:06:04;;;;;;;1.77;0.50;;;3.50;99.90;;;;;;5013580;28;20418;-70
2022/11/21 04:08:30;;;;;;;2.13;0.80;;;3.50;99.90;;;;;;5011705;28;20470;-70
2022/11/21 04:10:56;;;;;;;1.27;0.53;;;3.50;99.90;;;;;;5028856;28;20210;-70
2022/11/21 04:13:21;;;;;;;1.30;0.60;;;3.50;99.90;;;;;;5022938;28;20202;-70
2022/11/21 04:15:47;;;;;;;1.03;0.40;;;3.50;99.90;;;;;;5028827;28;20221;-70
2022/11/21 04:18:13;;;;;;;1.13;0.53;;;3.50;99.90;;;;;;5020816;28;20537;-70
2022/11/21 04:20:39;;;;;;;1.80;0.80;;;3.60;99.90;;;;;;5025000;28;20233;-70
2022/11/21 04:23:05;;;;;;;1.20;0.60;;;3.60;99.90;;;;;;5021620;28;20217;-71
2022/11/21 04:25:31;;;;;;;1.20;0.50;;;3.50;99.90;;;;;;5018446;28;20456;-71
2022/11/21 04:28:01;;;;;;;1.60;0.60;;;3.50;99.90;;;;;;5026093;28;20457;-71
2022/11/21 04:30:28;;;;;;;1.60;0.80;;;3.50;99.90;;;;;;5020660;28;20928;-71
2022/11/21 04:32:55;;;;;;;1.20;0.50;;;3.50;99.90;;;;;;5031047;28;21272;-71
2022/11/21 04:35:22;;;;;;;2.70;0.90;;;3.50;99.90;;;;;;5031189;28;21136;-70
2022/11/21 04:37:48;;;;;;;1.10;0.50;;;3.40;99.90;;;;;;5020367;28;20426;-71
2022/11/21 04:40:14;;;;;;;1.50;0.57;;;3.40;99.90;;;;;;5029341;28;20432;-70
2022/11/21 04:42:41;;;;;;;1.93;1.00;;;3.30;99.90;;;;;;5031072;28;20512;-70
2022/11/21 04:45:07;;;;;;;1.30;0.60;;;3.30;99.90;;;;;;5030765;28;20417;-70
2022/11/21 04:47:41;;;;;;;1.57;0.80;;;3.30;99.90;;;;;;5019889;28;20620;-70
2022/11/21 04:50:07;;;;;;;1.30;0.60;;;3.20;99.90;;;;;;5029994;28;20424;-70
2022/11/21 04:52:34;;;;;;;1.20;0.50;;;3.20;99.90;;;;;;5029643;28;20435;-70
2022/11/21 04:54:59;;;;;;;1.30;0.63;;;3.20;99.90;;;;;;5030986;28;20513;-70
2022/11/21 04:57:27;;;;;;;1.20;0.50;;;3.20;99.90;;;;;;5022500;28;20557;-70
2022/11/21 04:59:53;;;;;;;1.73;0.50;;;3.20;99.90;;;;;;5033685;28;20278;-70
2022/11/21 05:02:18;;;;;;;1.30;0.60;;;3.20;99.90;;;;;;5022357;28;20613;-70
2022/11/21 05:04:44;;;;;;;1.10;0.50;;;3.30;99.90;;;;;;5028334;28;20430;-71
2022/11/21 05:07:10;;;;;;;1.10;0.40;;;3.30;99.90;;;;;;5025599;28;20214;-70
2022/11/21 05:09:35;;;;;;;1.20;0.40;;;3.30;99.90;;;;;;5016812;28;20226;-70
2022/11/21 05:14:45;;;;;;;1.70;0.97;;;3.30;99.90;;;;;;5040645;28;20182;-70
2022/11/21 05:17:10;;;;;;;1.30;0.50;;;3.30;99.90;;;;;;5042096;28;20417;-71
2022/11/21 05:19:36;;;;;;;1.87;0.60;;;3.30;99.90;;;;;;5028987;28;20687;-69
2022/11/21 05:22:01;;;;;;;2.90;0.60;;;3.30;99.90;;;;;;5035105;28;20277;-70
2022/11/21 05:24:27;;;;;;;1.10;0.40;;;3.30;99.90;;;;;;5031763;28;20612;-70
2022/11/21 05:26:53;;;;;;;2.07;0.63;;;3.30;99.90;;;;;;5044210;28;20198;-70
2022/11/21 05:29:19;;;;;;;1.10;0.50;;;3.30;99.90;;;;;;5043621;28;20189;-70
2022/11/21 05:31:45;;;;;;;1.10;0.50;;;3.30;99.90;;;;;;5034208;28;20417;-70
2022/11/21 05:34:10;;;;;;;1.10;0.50;;;3.30;99.90;;;;;;5015154;28;20796;-71
2022/11/21 05:36:36;;;;;;;1.30;0.50;;;3.30;99.90;;;;;;5027710;28;20183;-71
2022/11/21 05:39:02;;;;;;;1.20;0.53;;;3.30;99.90;;;;;;5014350;28;20187;-70
2022/11/21 05:41:28;;;;;;;1.07;0.40;;;3.30;99.90;;;;;;5014010;28;20584;-70
2022/11/21 05:43:53;;;;;;;1.10;0.50;;;3.20;99.90;;;;;;5013654;28;20453;-71
2022/11/21 05:46:21;;;;;;;1.20;0.57;;;3.20;99.90;;;;;;5014982;28;20203;-71
2022/11/21 05:48:48;;;;;;;1.80;0.80;;;3.10;99.90;;;;;;5033609;28;20214;-71
2022/11/21 05:51:16;;;;;;;6.10;1.00;;;3.10;99.90;;;;;;5032342;28;20436;-70
2022/11/21 05:53:42;;;;;;;1.47;0.60;;;3.10;99.90;;;;;;5025140;28;20476;-70
2022/11/21 05:56:10;;;;;;;1.10;0.40;;;3.20;99.90;;;;;;5028941;28;20413;-70
2022/11/21 05:58:36;;;;;;;4.07;0.80;;;3.20;99.90;;;;;;5033143;28;20814;-71
2022/11/21 06:01:03;;;;;;;1.37;0.50;;;3.10;99.90;;;;;;5033471;28;20413;-70
2022/11/21 06:03:31;;;;;;;7.23;0.97;;;3.20;99.90;;;;;;5033189;28;20439;-70
2022/11/21 06:05:58;;;;;;;1.77;0.80;;;3.10;99.90;;;;;;5030341;28;20804;-71
2022/11/21 06:08:25;;;;;;;1.60;0.90;;;3.00;99.90;;;;;;5018697;28;20468;-71
2022/11/21 06:10:50;;;;;;;1.10;0.50;;;3.00;99.90;;;;;;5028203;28;20410;-71
2022/11/21 06:13:22;;;;;;;2.90;0.50;;;2.90;99.90;;;;;;5024696;28;20448;-70
2022/11/21 06:16:04;;;;;;;1.50;0.77;;;2.90;99.90;;;;;;5027019;28;20183;-71
2022/11/21 06:18:34;;;;;;;1.20;0.60;;;3.00;99.90;;;;;;5026694;28;20417;-71
2022/11/21 06:21:08;;;;;;;1.90;0.80;;;2.90;99.90;;;;;;5026758;28;20407;-71
2022/11/21 06:23:35;;;;;;;1.70;0.70;;;2.90;99.90;;;;;;5021841;28;20779;-71
2022/11/21 06:26:03;;;;;;;1.20;0.70;;;2.80;99.90;;;;;;5025268;28;20473;-71
2022/11/21 06:28:37;;;;;;;1.20;0.50;;;2.80;99.90;;;;;;5027087;28;20496;-71
2022/11/21 06:31:14;;;;;;;1.43;0.60;;;2.80;99.90;;;;;;5032878;28;20492;-70
2022/11/21 06:33:40;;;;;;;1.97;0.90;;;2.70;99.90;;;;;;5028294;28;20425;-71
2022/11/21 06:36:11;;;;;;;1.77;0.70;;;2.70;99.90;;;;;;5023828;28;20448;-70
2022/11/21 06:38:36;;;;;;;2.07;0.70;;;2.70;99.90;;;;;;5032741;28;20421;-70
2022/11/21 06:41:09;;;;;;;22.03;0.87;;;2.70;99.90;;;;;;5024125;28;20425;-70
2022/11/21 06:43:35;;;;;;;1.20;0.50;;;2.70;99.90;;;;;;5029644;28;20195;-70
2022/11/21 06:46:02;;;;;;;1.60;0.67;;;2.70;99.90;;;;;;5020534;28;20785;-70
2022/11/21 06:48:32;;;;;;;4.80;0.80;;;2.70;99.90;;;;;;5018336;28;20202;-70
2022/11/21 06:50:58;;;;;;;1.70;0.90;;;2.70;99.90;;;;;;5032176;28;20524;-70
2022/11/21 06:53:23;;;;;;;2.70;1.23;;;2.80;99.90;;;;;;5012394;28;20529;-70
2022/11/21 06:55:49;;;;;;;3.10;0.90;;;2.80;99.90;;;;;;5017457;28;20429;-70
2022/11/21 06:58:14;;;;;;;1.30;0.63;;;2.80;99.90;;;;;;5021415;28;20198;-70
2022/11/21 07:00:40;;;;;;;1.60;0.80;;;2.80;99.90;;;;;;5022714;28;20670;-70
2022/11/21 07:03:06;;;;;;;1.50;0.60;;;2.80;99.90;;;;;;5031130;28;20192;-70
2022/11/21 07:05:32;;;;;;;2.50;1.03;;;2.80;99.90;;;;;;5031069;28;20199;-70
2022/11/21 07:07:59;;;;;;;1.97;0.67;;;2.80;99.90;;;;;;5012736;28;20214;-70
2022/11/21 07:10:24;;;;;;;2.30;1.13;;;2.80;99.90;;;;;;5015226;28;20783;-70
2022/11/21 07:15:34;;;;;;;2.40;1.27;;;2.70;99.90;;;;;;5019576;28;20214;-70
2022/11/21 07:18:00;;;;;;;2.40;1.30;;;2.80;99.90;;;;;;5012317;28;20454;-70
2022/11/21 07:20:26;;;;;;;4.43;1.20;;;2.80;99.90;;;;;;5024998;28;20449;-70
2022/11/21 07:22:55;;;;;;;2.40;1.00;;;2.80;99.90;;;;;;5011991;28;20564;-70
2022/11/21 07:25:21;;;;;;;1.73;0.87;;;2.80;99.90;;;;;;5027532;28;20281;-70
2022/11/21 07:27:47;;;;;;;1.33;0.70;;;2.80;99.90;;;;;;5031678;28;20508;-70
2022/11/21 07:30:13;;;;;;;1.87;1.20;;;2.80;99.90;;;;;;5031469;28;20452;-70
2022/11/21 07:32:39;;;;;;;2.23;1.10;;;2.80;99.90;;;;;;5031447;28;20188;-70
2022/11/21 07:35:05;;;;;;;1.73;0.73;;;2.80;99.90;;;;;;5016330;28;20258;-70
2022/11/21 07:37:31;;;;;;;3.00;1.17;;;2.80;99.90;;;;;;5020713;28;20178;-70
2022/11/21 07:39:56;;;;;;;1.60;0.90;;;2.90;99.90;;;;;;5031450;28;20474;-70
2022/11/21 07:42:22;;;;;;;1.67;0.80;;;2.90;99.90;;;;;;5031227;28;20197;-70
2022/11/21 07:44:47;;;;;;;4.10;1.27;;;2.90;99.90;;;;;;5029223;28;20225;-70
2022/11/21 07:47:13;;;;;;;1.87;0.90;;;3.00;99.90;;;;;;5013833;28;20234;-70
2022/11/21 07:49:39;;;;;;;1.60;0.90;;;3.00;99.90;;;;;;5026575;28;20179;-70
2022/11/21 07:52:04;;;;;;;1.53;0.70;;;3.10;99.90;;;;;;5021991;28;20195;-70
2022/11/21 07:54:30;;;;;;;4.10;1.10;;;3.10;99.90;;;;;;5024858;28;20202;-70
2022/11/21 07:56:56;;;;;;;1.30;0.80;;;3.10;99.90;;;;;;5020043;28;20187;-70
2022/11/21 07:59:21;;;;;;;3.83;1.77;;;3.20;99.90;;;;;;5007460;28;20583;-70
2022/11/21 08:01:47;;;;;;;5.60;1.13;;;3.20;99.90;;;;;;5019375;28;20526;-70
2022/11/21 08:04:12;;;;;;;3.57;0.97;;;3.30;99.90;;;;;;5031194;28;20201;-70
2022/11/21 08:06:38;;;;;;;1.50;0.97;;;3.30;99.90;;;;;;5022592;28;20632;-70
2022/11/21 08:09:04;;;;;;;1.70;0.70;;;3.40;99.90;;;;;;5011483;28;20579;-70
2022/11/21 08:11:31;;;;;;;10.43;1.47;;;3.40;99.90;;;;;;5011469;28;20182;-70
2022/11/21 08:13:58;;;;;;;3.70;2.40;;;3.50;99.90;;;;;;5011454;28;20202;-70
2022/11/21 08:16:26;;;;;;;5.73;2.40;;;3.50;99.90;;;;;;5019768;28;20433;-70
2022/11/21 08:18:52;;;;;;;4.93;2.03;;;3.60;99.90;;;;;;5011443;28;20770;-70
2022/11/21 08:21:18;;;;;;;3.07;1.13;;;3.80;99.90;;;;;;5025283;28;20443;-70
2022/11/21 08:23:44;;;;;;;6.47;1.93;;;3.80;99.90;;;;;;5026104;28;20913;-70
2022/11/21 08:26:09;;;;;;;2.90;1.20;;;3.90;99.90;;;;;;5022970;28;20191;-70
2022/11/21 08:28:35;;;;;;;6.40;2.50;;;4.00;99.90;;;;;;5010861;28;20580;-70
2022/11/21 08:31:05;;;;;;;6.70;2.70;;;4.10;99.90;;;;;;5022285;28;20209;-70
2022/11/21 08:33:31;;;;;;;7.93;3.17;;;4.10;99.90;;;;;;5032552;28;20199;-69
2022/11/21 08:35:57;;;;;;;10.40;1.47;;;4.20;99.90;;;;;;5015579;28;20450;-70
2022/11/21 08:38:23;;;;;;;2.37;1.43;;;4.20;99.90;;;;;;5029429;28;20450;-70
2022/11/21 08:42:01;;;;;;;4.30;1.27;;;4.20;99.90;;;;;;5035309;28;20663;-69
2022/11/21 08:43:37;;;;;;;6.00;1.83;;;4.30;99.90;;;;;;5015512;28;20218;-70
2022/11/21 08:46:02;;;;;;;3.00;1.37;;;4.30;99.90;;;;;;5026699;28;20424;-69
2022/11/21 08:48:28;;;;;;;4.20;1.87;;;4.30;99.90;;;;;;5034675;28;20520;-69
2022/11/21 08:50:56;;;;;;;2.80;0.90;;;4.40;99.90;;;;;;5034727;28;20183;-69
2022/11/21 08:53:21;;;;;;;2.80;0.90;;;4.40;99.90;;;;;;5018595;28;20545;-69
2022/11/21 08:55:47;;;;;;;4.30;1.20;;;4.50;99.90;;;;;;5034807;28;20417;-68
2022/11/21 08:58:13;;;;;;;2.47;1.00;;;4.50;99.90;;;;;;5029405;28;20187;-68
2022/11/21 09:00:38;;;;;;;5.40;1.40;;;4.50;99.90;;;;;;5026906;28;20215;-69
2022/11/21 09:03:04;;;;;;;2.87;1.17;;;4.60;99.90;;;;;;5033965;28;20178;-68
2022/11/21 09:05:30;;;;;;;3.93;1.13;;;4.60;99.90;;;;;;5021884;28;20183;-68
2022/11/21 09:07:57;;;;;;;1.70;0.93;;;4.70;99.90;;;;;;5019415;28;20202;-68
2022/11/21 09:10:23;;;;;;;3.40;1.20;;;4.70;99.90;;;;;;5023010;28;20420;-68
2022/11/21 09:12:49;;;;;;;1.77;0.77;;;4.80;99.90;;;;;;5026058;28;20900;-68
2022/11/21 09:18:03;;;;;;;2.73;0.80;;;4.90;99.90;;;;;;5012991;28;20244;-68
2022/11/21 09:20:36;;;;;;;2.53;1.17;;;4.80;99.90;;;;;;5027633;28;20445;-68
2022/11/21 09:23:13;;;;;;;1.60;0.93;;;4.80;99.90;;;;;;5017888;28;20429;-68
2022/11/21 09:25:40;;;;;;;2.13;0.83;;;4.90;99.90;;;;;;5018963;28;20416;-68
2022/11/21 09:28:07;;;;;;;7.33;1.07;;;5.00;99.90;;;;;;5027620;28;20491;-68
2022/11/21 09:30:34;;;;;;;1.60;0.63;;;5.10;99.90;;;;;;5026985;28;20934;-68
2022/11/21 09:33:13;;;;;;;2.43;1.13;;;5.20;99.90;;;;;;5033605;28;20427;-68
2022/11/21 09:35:39;;;;;;;2.60;0.70;;;5.20;99.90;;;;;;5034035;28;20421;-68
2022/11/21 09:38:05;;;;;;;1.97;0.80;;;5.10;99.90;;;;;;5033597;28;20437;-68
2022/11/21 09:40:32;;;;;;;11.10;0.80;;;5.00;99.90;;;;;;5033865;28;20221;-68
2022/11/21 09:42:57;;;;;;;6.93;1.33;;;5.00;99.90;;;;;;5032191;28;20183;-68
2022/11/21 09:45:36;;;;;;;26.97;1.70;;;4.90;99.90;;;;;;5026249;28;20933;-68
2022/11/21 09:48:08;;;;;;;1.93;0.90;;;4.90;99.90;;;;;;5013952;28;20265;-68
2022/11/21 09:50:35;;;;;;;1.60;0.63;;;5.00;99.90;;;;;;5013995;28;20509;-68
2022/11/21 09:53:19;;;;;;;1.53;0.80;;;5.10;99.90;;;;;;5016631;28;20459;-68
2022/11/21 09:55:51;;;;;;;1.73;0.90;;;5.20;99.90;;;;;;5033742;28;20435;-69
2022/11/21 09:58:29;;;;;;;1.40;0.70;;;5.40;99.90;;;;;;5026091;28;20426;-69
2022/11/21 10:00:55;;;;;;;3.13;0.90;;;5.60;99.90;;;;;;5015462;28;20417;-68
2022/11/21 10:03:25;;;;;;;1.70;0.90;;;5.80;99.90;;;;;;5024908;28;21021;-69
2022/11/21 10:05:59;;;;;;;2.07;1.00;;;6.00;99.90;;;;;;5014730;28;20179;-68
2022/11/21 10:08:41;;;;;;;7.10;1.70;;;6.20;99.90;;;;;;5022185;28;20467;-68
2022/11/21 10:11:35;;;;;;;6.50;1.13;;;6.30;99.90;;;;;;5020332;28;20409;-67
2022/11/21 10:14:39;;;;;;;3.83;0.60;;;6.40;99.90;;;;;;5022982;28;20435;-68
2022/11/21 10:17:48;;;;;;;2.63;0.73;;;6.50;99.90;;;;;;5013840;28;20451;-69
2022/11/21 10:20:44;;;;;;;1.53;0.70;;;6.60;99.90;;;;;;4957780;28;20976;-68
2022/11/21 10:23:31;;;;;;;2.17;0.90;;;6.70;99.90;;;;;;5003724;28;20449;-69
2022/11/21 10:26:21;;;;;;;1.73;0.63;;;6.80;99.90;;;;;;5010664;28;20868;-68
2022/11/21 10:29:09;;;;;;;3.23;1.33;;;6.80;99.90;;;;;;5015037;28;20465;-68
2022/11/21 10:31:38;;;;;;;4.07;0.87;;;6.80;99.90;;;;;;5005165;28;20440;-69
2022/11/21 10:34:21;;;;;;;2.27;0.70;;;6.80;99.90;;;;;;5003478;28;20778;-69
2022/11/21 10:36:54;;;;;;;6.40;1.47;;;6.80;99.90;;;;;;5005238;28;20435;-68
2022/11/21 10:39:28;;;;;;;6.70;0.90;;;6.90;99.90;;;;;;5001600;28;20880;-68
2022/11/21 10:42:05;;;;;;;15.13;1.07;;;7.00;99.90;;;;;;5010872;28;20436;-68
2022/11/21 10:47:28;;;;;;;2.90;1.03;;;7.30;99.90;;;;;;5001965;28;20978;-68
2022/11/21 10:50:09;;;;;;;3.60;1.10;;;7.40;99.90;;;;;;5030021;28;20447;-68
2022/11/21 10:52:58;;;;;;;4.23;1.07;;;7.40;99.90;;;;;;5018974;28;20434;-68
2022/11/21 10:55:23;;;;;;;2.30;1.00;;;7.70;99.90;;;;;;5012851;28;20484;-67
2022/11/21 10:57:50;;;;;;;2.90;0.77;;;7.70;99.90;;;;;;5030595;28;20504;-68
2022/11/21 11:00:35;;;;;;;2.10;0.80;;;7.80;99.90;;;;;;5012245;28;20218;-68
2022/11/21 11:03:06;;;;;;;2.00;0.87;;;7.90;99.90;;;;;;5005717;28;20426;-67
2022/11/21 11:05:36;;;;;;;1.73;0.70;;;7.90;99.90;;;;;;5012488;28;20472;-68
2022/11/21 11:08:09;;;;;;;5.73;1.03;;;7.90;99.90;;;;;;5021381;28;20466;-67
2022/11/21 11:10:41;;;;;;;1.37;0.60;;;7.80;99.90;;;;;;5019667;28;20505;-67
2022/11/21 11:13:34;;;;;;;3.60;0.90;;;7.90;99.90;;;;;;5024301;28;20472;-68
2022/11/21 11:16:08;;;;;;;6.50;1.07;;;7.70;99.90;;;;;;5020319;28;20423;-67
2022/11/21 11:18:38;;;;;;;2.47;1.00;;;7.50;99.90;;;;;;5006130;28;20448;-67
2022/11/21 11:21:23;;;;;;;1.80;0.90;;;7.30;99.90;;;;;;5017606;28;20543;-67
2022/11/21 11:23:51;;;;;;;3.03;0.67;;;7.20;99.90;;;;;;5024814;28;20441;-67
2022/11/21 11:26:17;;;;;;;4.43;0.70;;;7.40;99.90;;;;;;5010067;28;20430;-67
2022/11/21 11:28:42;;;;;;;3.57;0.87;;;7.60;99.90;;;;;;5022284;28;20460;-66
2022/11/21 11:31:08;;;;;;;2.80;0.97;;;7.90;99.90;;;;;;5037289;28;20217;-67
2022/11/21 11:33:48;;;;;;;10.93;1.07;;;8.10;99.90;;;;;;5034502;28;20187;-66
2022/11/21 11:36:24;;;;;;;2.13;1.07;;;8.20;99.90;;;;;;5023031;28;20179;-67
2022/11/21 11:38:58;;;;;;;1.83;0.80;;;8.20;99.90;;;;;;5007233;28;20420;-66
2022/11/21 11:47:59;;;;;;;2.90;1.00;;;7.60;99.90;;;;;;5026941;28;20524;-67
2022/11/21 11:50:41;;;;;;;10.37;1.03;;;7.40;99.90;;;;;;5023710;28;20464;-72
2022/11/21 11:53:21;;;;;;;5.60;1.10;;;7.30;99.90;;;;;;5015384;28;20409;-67
2022/11/21 11:55:52;;;;;;;4.07;1.10;;;7.30;99.90;;;;;;5030247;28;20467;-67
2022/11/21 11:58:27;;;;;;;5.73;1.33;;;7.30;99.90;;;;;;5025841;28;20417;-69
2022/11/21 12:01:17;;;;;;;2.73;1.33;;;7.50;99.90;;;;;;5031690;28;20436;-68
2022/11/21 12:03:51;;;;;;;4.13;0.80;;;7.50;99.90;;;;;;5020814;28;20899;-68
2022/11/21 12:06:25;;;;;;;1.20;0.57;;;7.70;99.90;;;;;;5029499;28;20413;-67
2022/11/21 12:09:41;;;;;;;3.20;1.00;;;7.70;99.90;;;;;;5031045;28;20467;-68
2022/11/21 12:12:16;;;;;;;3.57;0.90;;;7.90;99.90;;;;;;5027922;28;20511;-68
2022/11/21 12:18:16;;;;;;;3.73;1.10;;;8.20;99.90;;;;;;5014117;28;20448;-68
2022/11/21 12:21:06;;;;;;;2.60;0.80;;;8.40;99.90;;;;;;5025402;28;20453;-68
2022/11/21 12:23:35;;;;;;;5.43;1.20;;;8.30;99.90;;;;;;5013219;28;20426;-68
2022/11/21 12:26:19;;;;;;;3.30;1.00;;;8.20;99.90;;;;;;5038138;28;20417;-68
2022/11/21 12:29:19;;;;;;;1.30;0.77;;;8.30;99.90;;;;;;5024196;28;20507;-67
2022/11/21 12:32:12;;;;;;;1.53;0.70;;;8.40;99.90;;;;;;5037688;28;20413;-68
2022/11/21 12:35:07;;;;;;;2.83;1.30;;;8.50;99.90;;;;;;5026199;28;20446;-70
2022/11/21 12:38:00;;;;;;;3.03;1.10;;;8.60;99.90;;;;;;5009013;28;21310;-71
2022/11/21 12:40:43;;;;;;;1.60;0.70;;;8.70;99.90;;;;;;5017763;28;20969;-69
2022/11/21 12:43:17;;;;;;;2.20;0.83;;;8.70;99.90;;;;;;5033204;28;20500;-67
2022/11/21 12:45:54;;;;;;;1.87;0.77;;;8.70;99.90;;;;;;5033299;28;20746;-67
2022/11/21 12:54:56;;;;;;;4.60;1.20;;;8.30;99.90;;;;;;5031916;28;20439;-68
2022/11/21 12:57:32;;;;;;;1.60;0.90;;;8.20;99.90;;;;;;5025100;28;20494;-67
2022/11/21 13:00:16;;;;;;;1.40;0.70;;;8.20;99.90;;;;;;5004842;28;20417;-67
2022/11/21 13:03:15;;;;;;;2.80;1.33;;;8.20;99.90;;;;;;5033591;28;20421;-67
2022/11/21 13:05:45;;;;;;;2.17;1.10;;;8.20;99.90;;;;;;5037110;28;20453;-67
2022/11/21 13:08:24;;;;;;;7.90;0.93;;;8.20;99.90;;;;;;5037484;28;20491;-67
2022/11/21 13:14:05;;;;;;;4.90;1.20;;;8.20;99.90;;;;;;5024005;28;20448;-67
2022/11/21 13:16:38;;;;;;;2.70;1.23;;;8.20;99.90;;;;;;5012527;28;20429;-67
2022/11/21 13:19:33;;;;;;;3.10;0.80;;;8.30;99.90;;;;;;5032135;28;20417;-67
2022/11/21 13:21:58;;;;;;;14.00;2.10;;;8.30;99.90;;;;;;5013469;28;20429;-67
2022/11/21 13:24:43;;;;;;;3.83;1.53;;;8.30;99.90;;;;;;5034421;28;20753;-67
2022/11/21 13:27:24;;;;;;;3.53;0.83;;;8.30;99.90;;;;;;5029919;28;20183;-67
2022/11/21 13:30:09;;;;;;;3.87;1.00;;;8.30;99.90;;;;;;5023334;28;20448;-67
2022/11/21 13:32:42;;;;;;;2.27;1.00;;;8.10;99.90;;;;;;5007985;28;20411;-67
2022/11/21 13:35:19;;;;;;;11.00;1.67;;;7.90;99.90;;;;;;5009758;28;20422;-67
2022/11/21 13:37:48;;;;;;;5.83;1.00;;;7.70;99.90;;;;;;5012780;28;20454;-67
2022/11/21 13:40:26;;;;;;;2.20;1.07;;;7.50;99.90;;;;;;5009492;28;20926;-66
2022/11/21 13:43:18;;;;;;;6.90;1.43;;;7.40;99.90;;;;;;5006951;28;20411;-67
2022/11/21 13:45:52;;;;;;;9.23;1.90;;;7.20;99.90;;;;;;5004822;28;20433;-67